Time;durP1;ratioP1;P1;durP2;ratioP2;P2;SDS_P1;SDS_P2;PMS_P1;PMS_P2;Temp;Humidity;BMP_temperature;BMP_pressure;BME280_temperature;BME280_humidity;BME280_pressure;Samples;Min_cycle;Max_cycle;Signal;HPM_P1;HPM_P2
2022/06/19 00:00:15;;;;;;;;;;;;;;;24.04;42.64;98978.84;5095571;28;19916;-69
2022/06/19 00:02:40;;;;;;;;;;;;;;;24.04;42.55;98976.91;5095447;28;19924;-69
2022/06/19 00:05:06;;;;;;;;;;;;;;;24.03;42.47;98975.31;5095015;28;19958;-69
2022/06/19 00:07:32;;;;;;;;;;;;;;;24.03;42.08;98969.84;5077339;28;19916;-69
2022/06/19 00:09:57;;;;;;;;;;;;;;;24.05;42.25;98967.63;5094986;28;19920;-69
2022/06/19 00:12:22;;;;;;;;;;;;;;;24.04;42.06;98954.28;5095428;28;20018;-69
2022/06/19 00:14:47;;;;;;;;;;;;;;;24.04;42.01;98944.16;5094886;28;19939;-69
2022/06/19 00:17:14;;;;;;;;;;;;;;;24.04;41.87;98943.38;5095031;28;19916;-69
2022/06/19 00:19:39;;;;;;;;;;;;;;;24.04;41.87;98948.81;5094997;28;20353;-69
2022/06/19 00:22:04;;;;;;;;;;;;;;;24.03;41.88;98953.50;5095301;28;19931;-70
2022/06/19 00:24:30;;;;;;;;;;;;;;;24.03;41.77;98942.56;5094779;28;20323;-69
2022/06/19 00:26:55;;;;;;;;;;;;;;;24.02;41.55;98935.50;5094628;28;19946;-70
2022/06/19 00:29:21;;;;;;;;;;;;;;;24.03;41.56;98926.19;5094701;28;19917;-70
2022/06/19 00:31:46;;;;;;;;;;;;;;;24.03;41.47;98933.59;5094646;28;19920;-68
2022/06/19 00:34:11;;;;;;;;;;;;;;;24.03;41.46;98930.88;5094793;28;19916;-70
2022/06/19 00:36:36;;;;;;;;;;;;;;;24.02;41.57;98934.69;5094416;28;19921;-69
2022/06/19 00:39:02;;;;;;;;;;;;;;;24.02;41.29;98932.75;5094613;28;19955;-70
2022/06/19 00:41:31;;;;;;;;;;;;;;;24.03;41.19;98942.56;5094229;28;19922;-70
2022/06/19 00:44:03;;;;;;;;;;;;;;;24.03;41.16;98952.69;5094349;28;19917;-70
2022/06/19 00:46:47;;;;;;;;;;;;;;;24.03;41.23;98958.94;5094900;28;19916;-70
2022/06/19 00:49:14;;;;;;;;;;;;;;;24.03;40.93;98952.69;5094548;28;19942;-69
2022/06/19 00:51:39;;;;;;;;;;;;;;;24.03;40.92;98942.56;5094472;28;19920;-71
2022/06/19 00:54:06;;;;;;;;;;;;;;;24.04;40.73;98937.91;5076031;28;19920;-70
2022/06/19 00:56:31;;;;;;;;;;;;;;;24.02;40.86;98938.22;5094817;28;19939;-70
2022/06/19 00:58:56;;;;;;;;;;;;;;;24.02;40.86;98946.41;5094062;28;20374;-70
2022/06/19 01:01:23;;;;;;;;;;;;;;;24.02;40.86;98935.50;5076329;28;19916;-70
2022/06/19 01:03:49;;;;;;;;;;;;;;;24.02;40.55;98932.75;5094438;28;19920;-70
2022/06/19 01:06:14;;;;;;;;;;;;;;;24.02;40.79;98918.31;5094181;28;19922;-70
2022/06/19 01:08:39;;;;;;;;;;;;;;;24.02;40.55;98912.88;5076172;28;19916;-70
2022/06/19 01:11:05;;;;;;;;;;;;;;;24.02;40.27;98893.78;5098159;28;20447;-70
2022/06/19 01:13:30;;;;;;;;;;;;;;;24.02;40.22;98875.47;5094024;28;19916;-70
2022/06/19 01:15:55;;;;;;;;;;;;;;;24.00;40.24;98874.97;5094763;28;19922;-70
2022/06/19 01:18:20;;;;;;;;;;;;;;;24.00;40.24;98899.53;5094255;28;20286;-70
2022/06/19 01:20:46;;;;;;;;;;;;;;;24.01;40.19;98903.88;5075893;28;19936;-70
2022/06/19 01:23:26;;;;;;;;;;;;;;;24.02;40.24;98907.41;5093854;28;20009;-70
2022/06/19 01:25:51;;;;;;;;;;;;;;;24.00;39.97;98902.25;5093605;28;20374;-70
2022/06/19 01:31:08;;;;;;;;;;;;;;;23.99;39.95;98892.44;5094069;28;20003;-70
2022/06/19 01:33:52;;;;;;;;;;;;;;;24.00;39.88;98883.16;5093959;28;19944;-70
2022/06/19 01:36:18;;;;;;;;;;;;;;;23.99;39.63;98889.72;5075920;28;19923;-70
2022/06/19 01:38:46;;;;;;;;;;;;;;;24.00;39.79;98888.63;5075561;28;19920;-70
2022/06/19 01:41:15;;;;;;;;;;;;;;;23.99;39.58;98882.38;5075782;28;20003;-70
2022/06/19 01:43:40;;;;;;;;;;;;;;;23.99;39.43;98882.38;5075573;28;20007;-70
2022/06/19 01:46:06;;;;;;;;;;;;;;;24.00;39.45;98873.03;5075853;28;20015;-70
2022/06/19 01:48:31;;;;;;;;;;;;;;;23.99;39.42;98879.63;5093612;28;20007;-70
2022/06/19 01:50:57;;;;;;;;;;;;;;;23.99;39.43;98881.53;5075813;28;19920;-70
2022/06/19 01:53:22;;;;;;;;;;;;;;;24.00;39.18;98872.25;5094681;28;19916;-69
2022/06/19 01:55:47;;;;;;;;;;;;;;;23.99;39.20;98865.16;5097619;28;19969;-69
2022/06/19 01:58:13;;;;;;;;;;;;;;;23.99;39.26;98865.16;5079831;28;19916;-69
2022/06/19 02:00:39;;;;;;;;;;;;;;;23.99;39.22;98859.72;5097854;28;20011;-69
2022/06/19 02:03:04;;;;;;;;;;;;;;;23.99;39.06;98857.81;5079906;28;19916;-69
2022/06/19 02:05:30;;;;;;;;;;;;;;;23.99;39.18;98848.78;5097478;28;20023;-70
2022/06/19 02:07:55;;;;;;;;;;;;;;;24.00;39.12;98855.88;5097788;28;19917;-70
2022/06/19 02:10:20;;;;;;;;;;;;;;;24.00;39.04;98858.59;5079450;28;20083;-71
2022/06/19 02:12:46;;;;;;;;;;;;;;;23.98;39.02;98853.47;5097663;28;19924;-70
2022/06/19 02:15:12;;;;;;;;;;;;;;;23.98;38.87;98853.47;5097590;28;20373;-70
2022/06/19 02:17:39;;;;;;;;;;;;;;;23.99;38.93;98865.16;5097216;28;20404;-70
2022/06/19 02:20:05;;;;;;;;;;;;;;;23.98;39.19;98861.66;5079099;28;19916;-70
2022/06/19 02:22:30;;;;;;;;;;;;;;;23.99;39.18;98865.16;5097742;28;20058;-70
2022/06/19 02:24:55;;;;;;;;;;;;;;;23.98;39.15;98858.13;5097299;28;19959;-70
2022/06/19 02:27:20;;;;;;;;;;;;;;;23.98;39.15;98864.38;5097318;28;19916;-69
2022/06/19 02:29:45;;;;;;;;;;;;;;;23.97;39.09;98853.78;5096934;28;20025;-69
2022/06/19 02:32:18;;;;;;;;;;;;;;;23.97;39.09;98856.50;5096920;28;19916;-69
2022/06/19 02:34:44;;;;;;;;;;;;;;;23.98;39.05;98864.38;5079306;28;19934;-69
2022/06/19 02:37:14;;;;;;;;;;;;;;;23.98;39.35;98855.38;5096889;28;19920;-70
2022/06/19 02:39:57;;;;;;;;;;;;;;;23.97;39.08;98845.59;5097252;28;19920;-69
2022/06/19 02:42:27;;;;;;;;;;;;;;;23.97;39.17;98834.66;5097015;28;19967;-69
2022/06/19 02:44:55;;;;;;;;;;;;;;;23.96;39.06;98833.88;5097128;28;19966;-69
2022/06/19 02:47:24;;;;;;;;;;;;;;;23.97;39.03;98840.13;5078742;28;19992;-69
2022/06/19 02:49:49;;;;;;;;;;;;;;;23.95;38.99;98832.25;5096524;28;19916;-70
2022/06/19 02:52:15;;;;;;;;;;;;;;;23.97;39.21;98830.03;5096607;28;19924;-70
2022/06/19 02:54:40;;;;;;;;;;;;;;;23.97;39.23;98823.75;5096579;28;19916;-70
2022/06/19 02:57:06;;;;;;;;;;;;;;;23.98;39.38;98826.19;5096465;28;19916;-69
2022/06/19 02:59:31;;;;;;;;;;;;;;;23.98;39.15;98833.56;5096862;28;19916;-70
2022/06/19 03:01:57;;;;;;;;;;;;;;;23.99;39.18;98826.97;5096276;28;19920;-69
2022/06/19 03:04:23;;;;;;;;;;;;;;;23.99;39.48;98837.88;5096350;28;19961;-69
2022/06/19 03:06:49;;;;;;;;;;;;;;;23.98;39.43;98837.09;5096403;28;19916;-69
2022/06/19 03:09:14;;;;;;;;;;;;;;;23.98;39.28;98847.22;5096547;28;19916;-69
2022/06/19 03:11:39;;;;;;;;;;;;;;;23.99;39.38;98832.44;5096233;28;19920;-68
2022/06/19 03:14:05;;;;;;;;;;;;;;;23.97;39.45;98835.50;5096507;28;19923;-70
2022/06/19 03:16:30;;;;;;;;;;;;;;;23.99;39.61;98837.88;5096442;28;20003;-70
2022/06/19 03:18:59;;;;;;;;;;;;;;;23.98;39.32;98839.03;5096375;28;20129;-70
2022/06/19 03:21:24;;;;;;;;;;;;;;;23.98;39.35;98839.03;5096272;28;19924;-70
2022/06/19 03:23:49;;;;;;;;;;;;;;;23.99;39.49;98848.78;5096570;28;20407;-70
2022/06/19 03:26:15;;;;;;;;;;;;;;;23.97;39.55;98837.41;5096137;28;19916;-70
2022/06/19 03:28:40;;;;;;;;;;;;;;;23.97;39.71;98840.13;5096221;28;20362;-70
2022/06/19 03:31:05;;;;;;;;;;;;;;;23.97;39.58;98849.13;5096202;28;20308;-70
2022/06/19 03:33:30;;;;;;;;;;;;;;;23.99;39.76;98848.78;5095811;28;19922;-70
2022/06/19 03:35:56;;;;;;;;;;;;;;;23.98;39.76;98841.75;5096156;28;19920;-70
2022/06/19 03:38:21;;;;;;;;;;;;;;;23.98;40.02;98841.75;5080828;28;20289;-69
2022/06/19 03:40:46;;;;;;;;;;;;;;;23.98;39.80;98848.00;5075756;28;19928;-70
2022/06/19 03:43:11;;;;;;;;;;;;;;;23.99;39.83;98848.78;5075599;28;19917;-69
2022/06/19 03:45:37;;;;;;;;;;;;;;;24.00;39.76;98861.34;5075629;28;19924;-69
2022/06/19 03:48:02;;;;;;;;;;;;;;;23.98;39.85;98852.66;5057671;28;20278;-69
2022/06/19 03:50:27;;;;;;;;;;;;;;;23.98;39.70;98856.19;5075532;28;19971;-69
2022/06/19 03:52:53;;;;;;;;;;;;;;;23.98;39.53;98853.47;5075398;28;19948;-70
2022/06/19 03:55:18;;;;;;;;;;;;;;;23.99;39.76;98854.25;5075072;28;19939;-70
2022/06/19 03:57:43;;;;;;;;;;;;;;;23.98;39.58;98858.13;5075383;28;19920;-70
2022/06/19 04:00:11;;;;;;;;;;;;;;;23.99;39.73;98866.00;5075541;28;19916;-69
2022/06/19 04:02:36;;;;;;;;;;;;;;;23.98;39.92;98858.13;5057239;28;19948;-69
2022/06/19 04:05:02;;;;;;;;;;;;;;;23.99;39.63;98859.72;5075155;28;19965;-69
2022/06/19 04:07:27;;;;;;;;;;;;;;;23.98;39.57;98866.31;5075310;28;20362;-69
2022/06/19 04:09:57;;;;;;;;;;;;;;;23.98;39.58;98863.56;5075135;28;20396;-69
2022/06/19 04:12:23;;;;;;;;;;;;;;;23.99;39.43;98862.44;5075174;28;19923;-69
2022/06/19 04:14:48;;;;;;;;;;;;;;;23.98;39.54;98877.22;5075054;28;19916;-69
2022/06/19 04:17:13;;;;;;;;;;;;;;;23.98;39.52;98878.00;5074546;28;19916;-69
2022/06/19 04:19:38;;;;;;;;;;;;;;;23.99;39.40;98879.63;5074682;28;19917;-68
2022/06/19 04:22:04;;;;;;;;;;;;;;;23.98;39.48;98886.19;5074865;28;19927;-70
2022/06/19 04:24:29;;;;;;;;;;;;;;;24.00;39.41;98888.63;5074570;28;19921;-70
2022/06/19 04:26:54;;;;;;;;;;;;;;;23.99;39.73;98892.44;5074769;28;19923;-69
2022/06/19 04:29:21;;;;;;;;;;;;;;;23.99;39.47;98893.28;5074578;28;20412;-69
2022/06/19 04:31:46;;;;;;;;;;;;;;;23.99;39.27;98892.44;5074742;28;19924;-69
2022/06/19 04:34:12;;;;;;;;;;;;;;;23.99;39.38;98890.56;5074710;28;19916;-69
2022/06/19 04:36:37;;;;;;;;;;;;;;;23.99;39.45;98896.00;5074958;28;19967;-69
2022/06/19 04:39:02;;;;;;;;;;;;;;;23.99;38.95;98903.38;5074223;28;20382;-70
2022/06/19 04:41:37;;;;;;;;;;;;;;;23.97;38.91;98900.97;5074171;28;19916;-70
2022/06/19 04:44:03;;;;;;;;;;;;;;;24.00;38.79;98903.06;5057920;28;19916;-70
2022/06/19 04:46:28;;;;;;;;;;;;;;;23.99;38.80;98904.19;5074355;28;19923;-70
2022/06/19 04:48:54;;;;;;;;;;;;;;;23.99;38.51;98906.94;5074419;28;19916;-70
2022/06/19 04:51:19;;;;;;;;;;;;;;;23.99;38.26;98903.38;5056510;28;19923;-70
2022/06/19 04:53:44;;;;;;;;;;;;;;;24.00;37.95;98916.69;5074063;28;19917;-70
2022/06/19 04:56:10;;;;;;;;;;;;;;;23.99;37.74;98917.00;5074366;28;20058;-70
2022/06/19 04:58:35;;;;;;;;;;;;;;;23.97;37.69;98928.25;5074345;28;20376;-69
2022/06/19 05:01:05;;;;;;;;;;;;;;;23.98;37.57;98929.84;5074418;28;19917;-69
2022/06/19 05:03:30;;;;;;;;;;;;;;;23.97;37.07;98930.16;5074194;28;20003;-69
2022/06/19 05:05:55;;;;;;;;;;;;;;;23.98;36.96;98939.97;5056082;28;19956;-69
2022/06/19 05:08:21;;;;;;;;;;;;;;;23.98;36.91;98940.78;5074352;28;19978;-70
2022/06/19 05:10:47;;;;;;;;;;;;;;;24.00;36.47;98954.09;5073781;28;19926;-69
2022/06/19 05:13:16;;;;;;;;;;;;;;;23.97;36.24;98943.81;5074060;28;19923;-69
2022/06/19 05:15:42;;;;;;;;;;;;;;;23.97;36.04;98955.56;5073954;28;19916;-69
2022/06/19 05:18:07;;;;;;;;;;;;;;;23.99;35.70;98949.75;5073951;28;19999;-69
2022/06/19 05:20:32;;;;;;;;;;;;;;;23.97;35.62;98949.25;5073394;28;19923;-69
2022/06/19 05:22:58;;;;;;;;;;;;;;;23.95;35.42;98957.75;5074226;28;19962;-70
2022/06/19 05:25:23;;;;;;;;;;;;;;;23.99;35.30;98958.75;5073869;28;20387;-69
2022/06/19 05:27:48;;;;;;;;;;;;;;;23.99;34.96;98974.31;5073573;28;19916;-70
2022/06/19 05:30:13;;;;;;;;;;;;;;;23.98;34.90;98975.44;5073494;28;20015;-70
2022/06/19 05:32:39;;;;;;;;;;;;;;;23.96;34.53;98970.28;5073459;28;19920;-69
2022/06/19 05:35:04;;;;;;;;;;;;;;;23.95;34.51;98965.94;5073920;28;20003;-69
2022/06/19 05:37:30;;;;;;;;;;;;;;;23.97;34.67;98966.47;5081156;28;19973;-68
2022/06/19 05:39:55;;;;;;;;;;;;;;;23.98;34.63;98972.72;5093931;28;20006;-68
2022/06/19 05:42:20;;;;;;;;;;;;;;;23.98;34.27;98978.19;5093677;28;20312;-68
2022/06/19 05:44:45;;;;;;;;;;;;;;;23.96;34.13;98986.66;5093661;28;19917;-68
2022/06/19 05:47:11;;;;;;;;;;;;;;;23.96;34.05;98997.59;5093568;28;19923;-70
2022/06/19 05:49:36;;;;;;;;;;;;;;;23.96;34.06;98991.31;5093920;28;19927;-69
2022/06/19 05:52:02;;;;;;;;;;;;;;;23.99;33.90;98993.41;5075789;28;19920;-70
2022/06/19 05:54:27;;;;;;;;;;;;;;;24.00;33.51;98992.31;5093942;28;20365;-69
2022/06/19 05:56:53;;;;;;;;;;;;;;;23.99;33.49;98994.25;5093851;28;20010;-70
2022/06/19 05:59:18;;;;;;;;;;;;;;;23.97;33.31;98995.66;5093793;28;19916;-70
2022/06/19 06:01:43;;;;;;;;;;;;;;;24.00;33.17;98992.31;5093796;28;19962;-69
2022/06/19 06:04:09;;;;;;;;;;;;;;;24.00;33.13;99000.50;5093423;28;19917;-69
2022/06/19 06:06:34;;;;;;;;;;;;;;;24.01;33.25;98999.38;5075721;28;19999;-69
2022/06/19 06:08:59;;;;;;;;;;;;;;;23.98;33.16;99000.81;5093551;28;19969;-69
2022/06/19 06:11:25;;;;;;;;;;;;;;;23.99;32.99;99007.88;5093394;28;19917;-69
2022/06/19 06:13:50;;;;;;;;;;;;;;;24.00;32.92;99008.69;5093837;28;19916;-69
2022/06/19 06:16:16;;;;;;;;;;;;;;;24.02;32.98;99003.72;5093750;28;20414;-69
2022/06/19 06:18:41;;;;;;;;;;;;;;;24.00;32.72;99003.22;5093922;28;20308;-69
2022/06/19 06:21:08;;;;;;;;;;;;;;;23.98;32.68;99000.81;5093575;28;19978;-69
2022/06/19 06:23:33;;;;;;;;;;;;;;;23.98;32.69;99003.53;5093421;28;19927;-69
2022/06/19 06:26:02;;;;;;;;;;;;;;;23.99;32.48;99002.44;5093298;28;19917;-69
2022/06/19 06:28:28;;;;;;;;;;;;;;;24.04;32.06;98996.00;5093505;28;19920;-69
2022/06/19 06:30:53;;;;;;;;;;;;;;;24.02;32.15;99008.38;5093629;28;20331;-69
2022/06/19 06:33:18;;;;;;;;;;;;;;;24.00;31.93;99009.47;5093577;28;20026;-69
2022/06/19 06:35:43;;;;;;;;;;;;;;;24.03;31.96;99018.97;5093625;28;19923;-69
2022/06/19 06:38:09;;;;;;;;;;;;;;;24.04;32.19;99019.78;5093274;28;19920;-69
2022/06/19 06:40:34;;;;;;;;;;;;;;;24.04;31.74;99015.13;5095707;28;20200;-69
2022/06/19 06:42:59;;;;;;;;;;;;;;;24.05;31.61;99026.84;5097852;28;19916;-69
2022/06/19 06:45:25;;;;;;;;;;;;;;;24.06;31.83;99029.28;5097951;28;20363;-69
2022/06/19 06:47:50;;;;;;;;;;;;;;;24.05;31.55;99035.84;5078756;28;20424;-70
2022/06/19 06:50:15;;;;;;;;;;;;;;;24.07;31.63;99033.59;5097233;28;19916;-69
2022/06/19 06:52:41;;;;;;;;;;;;;;;24.06;31.52;99036.63;5097489;28;20017;-69
2022/06/19 06:55:06;;;;;;;;;;;;;;;24.04;31.27;99039.69;5097454;28;20401;-69
2022/06/19 06:57:31;;;;;;;;;;;;;;;24.02;31.42;99036.47;5098585;28;20355;-69
2022/06/19 06:59:57;;;;;;;;;;;;;;;24.03;31.22;99034.56;5097527;28;19989;-69
2022/06/19 07:02:22;;;;;;;;;;;;;;;24.04;31.10;99041.59;5097759;28;19916;-69
2022/06/19 07:04:47;;;;;;;;;;;;;;;24.03;31.22;99035.34;5097085;28;20358;-69
2022/06/19 07:07:12;;;;;;;;;;;;;;;24.04;31.06;99045.13;5097626;28;20062;-69
2022/06/19 07:09:38;;;;;;;;;;;;;;;24.06;31.18;99047.56;5098102;28;19920;-69
2022/06/19 07:12:03;;;;;;;;;;;;;;;24.04;30.86;99050.59;5097635;28;20273;-69
2022/06/19 07:14:29;;;;;;;;;;;;;;;24.03;31.01;99046.25;5098029;28;19959;-70
2022/06/19 07:16:54;;;;;;;;;;;;;;;24.03;30.83;99049.00;5097865;28;20377;-70
2022/06/19 07:19:19;;;;;;;;;;;;;;;24.03;30.74;99057.19;5097350;28;20381;-69
2022/06/19 07:21:44;;;;;;;;;;;;;;;24.04;30.75;99047.88;5097505;28;19963;-69
2022/06/19 07:24:10;;;;;;;;;;;;;;;24.07;30.62;99052.72;5096414;28;19916;-69
2022/06/19 07:26:35;;;;;;;;;;;;;;;24.10;30.29;99057.56;5095964;28;19919;-69
2022/06/19 07:29:00;;;;;;;;;;;;;;;24.13;30.38;99061.59;5095862;28;20019;-69
2022/06/19 07:31:26;;;;;;;;;;;;;;;24.12;30.22;99058.03;5095799;28;19917;-69
2022/06/19 07:33:51;;;;;;;;;;;;;;;24.13;29.98;99059.66;5096098;28;19940;-69
2022/06/19 07:36:17;;;;;;;;;;;;;;;24.16;29.84;99061.78;5077662;28;19976;-69
2022/06/19 07:38:43;;;;;;;;;;;;;;;24.15;29.72;99060.16;5095791;28;20006;-69
2022/06/19 07:41:08;;;;;;;;;;;;;;;24.18;29.84;99059.53;5095971;28;20310;-69
2022/06/19 07:43:33;;;;;;;;;;;;;;;24.17;29.57;99057.13;5095540;28;20006;-69
2022/06/19 07:45:58;;;;;;;;;;;;;;;24.15;29.42;99062.88;5095798;28;19951;-69
2022/06/19 07:51:07;;;;;;;;;;;;;;;24.18;29.35;99070.47;5095423;28;19966;-69
2022/06/19 07:53:33;;;;;;;;;;;;;;;24.18;29.35;99059.53;5095228;28;19920;-69
2022/06/19 07:55:58;;;;;;;;;;;;;;;24.21;29.26;99065.50;5095642;28;19916;-69
2022/06/19 07:58:23;;;;;;;;;;;;;;;24.22;28.90;99058.94;5095614;28;20347;-70
2022/06/19 08:00:49;;;;;;;;;;;;;;;24.23;29.08;99061.31;5077404;28;20319;-70
2022/06/19 08:03:14;;;;;;;;;;;;;;;24.23;28.88;99066.78;5095714;28;19969;-69
2022/06/19 08:05:39;;;;;;;;;;;;;;;24.22;28.76;99069.84;5098636;28;20286;-69
2022/06/19 08:08:07;;;;;;;;;;;;;;;24.19;28.64;99077.50;5095325;28;19920;-69
2022/06/19 08:10:33;;;;;;;;;;;;;;;24.17;28.64;99082.47;5095726;28;19916;-69
2022/06/19 08:12:58;;;;;;;;;;;;;;;24.18;28.88;99086.00;5095640;28;19916;-69
2022/06/19 08:15:24;;;;;;;;;;;;;;;24.19;28.69;99082.97;5095308;28;19939;-69
2022/06/19 08:17:49;;;;;;;;;;;;;;;24.20;28.61;99089.25;5077112;28;19916;-69
2022/06/19 08:20:16;;;;;;;;;;;;;;;24.17;28.52;99090.66;5095285;28;20362;-69
2022/06/19 08:22:41;;;;;;;;;;;;;;;24.16;28.49;99089.06;5095200;28;19925;-69
2022/06/19 08:25:07;;;;;;;;;;;;;;;24.16;28.70;99100.00;5094802;28;19926;-69
2022/06/19 08:27:34;;;;;;;;;;;;;;;24.22;28.66;99094.41;5095009;28;19923;-69
2022/06/19 08:29:59;;;;;;;;;;;;;;;24.24;28.26;99090.25;5095234;28;20357;-70
2022/06/19 08:32:25;;;;;;;;;;;;;;;24.28;28.38;99095.88;5095025;28;19974;-70
2022/06/19 08:34:50;;;;;;;;;;;;;;;24.31;28.17;99101.53;5094934;28;20304;-70
2022/06/19 08:37:15;;;;;;;;;;;;;;;24.33;27.97;99093.03;5094457;28;19974;-70
2022/06/19 08:39:40;;;;;;;;;;;;;;;24.27;27.97;99097.81;5094842;28;19923;-70
2022/06/19 08:42:32;;;;;;;;;;;;;;;24.25;27.85;99093.78;5094413;28;20048;-70
2022/06/19 08:45:03;;;;;;;;;;;;;;;24.24;27.68;99103.88;5091479;28;19920;-70
2022/06/19 08:47:40;;;;;;;;;;;;;;;24.24;27.91;99097.63;5094579;28;20396;-70
2022/06/19 08:50:05;;;;;;;;;;;;;;;24.29;27.73;99101.03;5076391;28;19933;-70
2022/06/19 08:52:51;;;;;;;;;;;;;;;24.33;27.75;99103.94;5094792;28;19941;-70
2022/06/19 08:55:28;;;;;;;;;;;;;;;24.36;27.48;99111.53;5094033;28;19923;-70
2022/06/19 08:57:54;;;;;;;;;;;;;;;24.39;27.57;99108.19;5094492;28;19916;-70
2022/06/19 09:00:32;;;;;;;;;;;;;;;24.41;27.35;99110.59;5094291;28;19923;-70
2022/06/19 09:03:11;;;;;;;;;;;;;;;24.42;27.28;99107.53;5076412;28;19923;-70
2022/06/19 09:05:44;;;;;;;;;;;;;;;24.43;27.13;99109.16;5076331;28;19939;-70
2022/06/19 09:08:10;;;;;;;;;;;;;;;24.43;27.18;99109.16;5094390;28;19916;-70
2022/06/19 09:10:41;;;;;;;;;;;;;;;24.44;26.95;99120.88;5094450;28;19943;-70
2022/06/19 09:13:12;;;;;;;;;;;;;;;24.44;27.13;99116.25;5076401;28;19916;-70
2022/06/19 09:15:39;;;;;;;;;;;;;;;24.44;27.01;99108.06;5094044;28;19920;-70
2022/06/19 09:18:05;;;;;;;;;;;;;;;24.46;26.87;99113.22;5075700;28;19924;-69
2022/06/19 09:20:40;;;;;;;;;;;;;;;24.47;26.93;99117.53;5094678;28;20359;-70
2022/06/19 09:23:23;;;;;;;;;;;;;;;24.46;26.91;99113.22;5093905;28;20258;-70
2022/06/19 09:25:54;;;;;;;;;;;;;;;24.47;27.03;99128.47;5094190;28;20015;-70
2022/06/19 09:28:20;;;;;;;;;;;;;;;24.42;26.99;99118.47;5093803;28;19916;-70
2022/06/19 09:30:53;;;;;;;;;;;;;;;24.46;26.98;99124.94;5094083;28;19923;-70
2022/06/19 09:33:20;;;;;;;;;;;;;;;24.47;26.91;99129.25;5094094;28;20002;-71
2022/06/19 09:35:52;;;;;;;;;;;;;;;24.50;26.76;99116.91;5076202;28;19916;-71
2022/06/19 09:38:18;;;;;;;;;;;;;;;24.51;26.71;99130.28;5093830;28;19924;-70
2022/06/19 09:40:45;;;;;;;;;;;;;;;24.51;26.79;99133.00;5094102;28;19920;-70
2022/06/19 09:43:22;;;;;;;;;;;;;;;24.51;26.73;99124.81;5075832;28;19917;-70
2022/06/19 09:45:50;;;;;;;;;;;;;;;24.53;26.65;99125.28;5075743;28;19920;-70
2022/06/19 09:48:15;;;;;;;;;;;;;;;24.52;26.46;99126.41;5094020;28;19923;-70
2022/06/19 09:50:46;;;;;;;;;;;;;;;24.54;26.41;99120.66;5093982;28;20270;-70
2022/06/19 09:53:14;;;;;;;;;;;;;;;24.54;26.27;99126.13;5093904;28;19916;-70
2022/06/19 09:55:41;;;;;;;;;;;;;;;24.57;26.24;99124.72;5093830;28;20258;-70
2022/06/19 09:58:19;;;;;;;;;;;;;;;24.57;26.03;99130.16;5093696;28;20014;-69
2022/06/19 10:00:45;;;;;;;;;;;;;;;24.56;25.95;99129.38;5094325;28;19939;-69
2022/06/19 10:03:16;;;;;;;;;;;;;;;24.55;25.75;99125.81;5076041;28;19916;-69
2022/06/19 10:05:51;;;;;;;;;;;;;;;24.57;25.68;99130.16;5075601;28;19916;-69
2022/06/19 10:08:33;;;;;;;;;;;;;;;24.59;25.65;99122.47;5076072;28;19982;-69
2022/06/19 10:11:34;;;;;;;;;;;;;;;24.58;25.43;99134.50;5093721;28;20011;-70
2022/06/19 10:14:00;;;;;;;;;;;;;;;24.59;25.73;99144.31;5031366;28;20326;-70
2022/06/19 10:16:31;;;;;;;;;;;;;;;24.59;25.83;99139.66;5018326;28;20017;-70
2022/06/19 10:18:58;;;;;;;;;;;;;;;24.60;25.53;99140.47;5035042;28;20363;-70
2022/06/19 10:24:13;;;;;;;;;;;;;;;24.64;25.32;99142.25;5035045;28;19924;-70
2022/06/19 10:26:56;;;;;;;;;;;;;;;24.64;25.15;99138.72;5034898;28;19917;-70
2022/06/19 10:29:22;;;;;;;;;;;;;;;24.63;25.40;99146.13;5035499;28;19921;-70
2022/06/19 10:31:50;;;;;;;;;;;;;;;24.65;25.27;99143.88;5034841;28;20008;-70
2022/06/19 10:34:21;;;;;;;;;;;;;;;24.66;25.27;99152.88;5034659;28;19940;-70
2022/06/19 10:36:55;;;;;;;;;;;;;;;24.67;25.03;99157.22;5018104;28;19917;-70
2022/06/19 10:39:23;;;;;;;;;;;;;;;24.66;24.75;99158.34;5034333;28;20431;-70
2022/06/19 10:42:00;;;;;;;;;;;;;;;24.65;24.84;99162.22;5034547;28;19923;-70
2022/06/19 10:44:29;;;;;;;;;;;;;;;24.66;24.92;99161.06;5034603;28;19924;-70
2022/06/19 10:47:17;;;;;;;;;;;;;;;24.66;24.48;99156.41;5021765;28;19925;-70
2022/06/19 10:50:09;;;;;;;;;;;;;;;24.64;24.73;99163.31;5088706;28;19916;-70
2022/06/19 10:52:53;;;;;;;;;;;;;;;24.58;24.56;99159.06;5093057;28;20363;-70
2022/06/19 10:55:24;;;;;;;;;;;;;;;24.50;24.61;99164.16;5079044;28;19920;-70
2022/06/19 10:57:57;;;;;;;;;;;;;;;24.47;24.77;99169.44;5096962;28;19985;-70
2022/06/19 11:00:22;;;;;;;;;;;;;;;24.43;24.41;99169.25;5096818;28;20015;-70
2022/06/19 11:05:39;;;;;;;;;;;;;;;24.46;24.53;99167.81;5081313;28;19927;-70
2022/06/19 11:08:04;;;;;;;;;;;;;;;24.50;24.44;99172.34;5078624;28;19977;-70
2022/06/19 11:10:35;;;;;;;;;;;;;;;24.53;24.48;99160.00;5096247;28;20398;-70
2022/06/19 11:13:03;;;;;;;;;;;;;;;24.57;24.15;99162.94;5078535;28;19917;-70
2022/06/19 11:15:30;;;;;;;;;;;;;;;24.59;24.04;99166.16;5096576;28;20323;-70
2022/06/19 11:18:31;;;;;;;;;;;;;;;24.61;23.83;99166.66;5096446;28;19959;-70
2022/06/19 11:21:00;;;;;;;;;;;;;;;24.61;23.92;99163.94;5033852;28;20374;-70
2022/06/19 11:23:29;;;;;;;;;;;;;;;24.63;23.86;99169.88;5033657;28;19917;-70
2022/06/19 11:25:54;;;;;;;;;;;;;;;24.65;23.86;99159.47;5033675;28;20019;-70
2022/06/19 11:28:19;;;;;;;;;;;;;;;24.66;23.96;99163.81;5033702;28;20011;-70
2022/06/19 11:30:50;;;;;;;;;;;;;;;24.66;23.73;99161.06;5033730;28;19917;-70
2022/06/19 11:33:16;;;;;;;;;;;;;;;24.65;23.86;99157.53;5033765;28;19976;-70
2022/06/19 11:35:57;;;;;;;;;;;;;;;24.66;23.92;99159.13;5033675;28;20387;-70
2022/06/19 11:38:37;;;;;;;;;;;;;;;24.67;23.85;99165.44;5033339;28;19921;-70
2022/06/19 11:41:18;;;;;;;;;;;;;;;24.67;23.70;99173.63;5033360;28;19960;-70
2022/06/19 11:43:43;;;;;;;;;;;;;;;24.69;23.70;99174.91;5033435;28;20124;-70
2022/06/19 11:46:24;;;;;;;;;;;;;;;24.69;23.80;99174.13;5033894;28;20367;-70
2022/06/19 11:48:50;;;;;;;;;;;;;;;24.66;23.98;99182.91;5033484;28;19921;-70
2022/06/19 11:51:16;;;;;;;;;;;;;;;24.59;24.12;99186.09;5033279;28;19924;-70
2022/06/19 11:53:41;;;;;;;;;;;;;;;24.55;24.21;99194.09;5016739;28;19917;-70
2022/06/19 11:56:19;;;;;;;;;;;;;;;24.53;24.14;99190.84;5095446;28;19978;-70
2022/06/19 11:58:45;;;;;;;;;;;;;;;24.53;24.23;99196.31;5095692;28;19923;-70
2022/06/19 12:01:12;;;;;;;;;;;;;;;24.50;24.33;99199.66;5096470;28;19916;-70
2022/06/19 12:03:56;;;;;;;;;;;;;;;24.50;24.53;99207.03;5095474;28;20408;-70
2022/06/19 12:06:39;;;;;;;;;;;;;;;24.46;24.26;99211.53;5095111;28;19920;-70
2022/06/19 12:09:05;;;;;;;;;;;;;;;24.44;24.63;99211.81;5095510;28;19916;-70
2022/06/19 12:11:34;;;;;;;;;;;;;;;24.45;24.70;99215.34;5077117;28;19966;-70
2022/06/19 12:13:59;;;;;;;;;;;;;;;24.45;24.29;99209.91;5095459;28;20350;-70
2022/06/19 12:16:25;;;;;;;;;;;;;;;24.41;24.69;99209.69;5095380;28;19989;-70
2022/06/19 12:18:50;;;;;;;;;;;;;;;24.39;24.36;99214.66;5095339;28;20385;-70
2022/06/19 12:21:20;;;;;;;;;;;;;;;24.37;24.42;99222.38;5095254;28;20357;-70
2022/06/19 12:24:09;;;;;;;;;;;;;;;24.38;24.50;99213.03;5076836;28;20327;-70
2022/06/19 12:26:35;;;;;;;;;;;;;;;24.33;24.41;99208.50;5032886;28;19917;-70
2022/06/19 12:29:21;;;;;;;;;;;;;;;24.34;24.29;99212.06;5032950;28;19917;-70
2022/06/19 12:31:46;;;;;;;;;;;;;;;24.36;24.53;99207.88;4973757;28;19918;-70
2022/06/19 12:34:21;;;;;;;;;;;;;;;24.37;24.41;99203.25;4957735;28;19924;-70
2022/06/19 12:36:47;;;;;;;;;;;;;;;24.39;24.49;99203.75;4973507;28;19922;-70
2022/06/19 12:39:17;;;;;;;;;;;;;;;24.43;24.47;99217.59;4973222;28;19973;-70
2022/06/19 12:41:48;;;;;;;;;;;;;;;24.48;24.27;99231.13;4973867;28;20012;-70
2022/06/19 12:44:32;;;;;;;;;;;;;;;24.48;24.15;99225.66;4973694;28;19929;-70
2022/06/19 12:47:09;;;;;;;;;;;;;;;24.46;24.36;99228.69;4973553;28;19924;-70
2022/06/19 12:49:37;;;;;;;;;;;;;;;24.43;24.27;99229.31;4973618;28;19941;-70
2022/06/19 12:52:17;;;;;;;;;;;;;;;24.38;24.23;99232.16;4973453;28;19918;-70
2022/06/19 12:54:54;;;;;;;;;;;;;;;24.35;24.39;99227.31;4973446;28;20116;-70
2022/06/19 12:57:22;;;;;;;;;;;;;;;24.35;24.30;99227.31;4973488;28;20061;-70
2022/06/19 12:59:50;;;;;;;;;;;;;;;24.34;24.17;99231.16;4973314;28;19922;-70
2022/06/19 13:02:17;;;;;;;;;;;;;;;24.33;24.45;99240.47;4973423;28;19949;-70